Time;durP1;ratioP1;P1;durP2;ratioP2;P2;SDS_P1;SDS_P2;PMS_P1;PMS_P2;Temp;Humidity;BMP_temperature;BMP_pressure;BME280_temperature;BME280_humidity;BME280_pressure;Samples;Min_cycle;Max_cycle;Signal;HPM_P1;HPM_P2
2023/06/03 00:00:48;;;;;;;3.22;2.00;;;13.60;99.90;;;;;;5014534;28;20038;-71
2023/06/03 00:03:16;;;;;;;5.13;1.98;;;;;;;;;;5014466;28;20081;-71
2023/06/03 00:05:42;;;;;;;5.20;1.80;;;13.60;99.90;;;;;;5013844;28;20048;-71
2023/06/03 00:08:08;;;;;;;5.78;1.85;;;13.50;99.90;;;;;;5013088;28;20080;-71
2023/06/03 00:10:33;;;;;;;6.00;1.65;;;13.60;99.90;;;;;;5014344;28;20072;-71
2023/06/03 00:12:59;;;;;;;5.07;1.90;;;13.60;99.90;;;;;;4998250;28;20076;-72
2023/06/03 00:15:25;;;;;;;3.58;1.95;;;;;;;;;;5013842;28;20135;-71
2023/06/03 00:17:51;;;;;;;2.33;1.40;;;;;;;;;;4998179;28;20045;-71
2023/06/03 00:20:17;;;;;;;7.28;1.92;;;;;;;;;;5014076;28;20041;-71
2023/06/03 00:22:45;;;;;;;3.03;1.50;;;;;;;;;;4998089;28;20128;-71
2023/06/03 00:25:11;;;;;;;11.10;2.33;;;13.50;99.90;;;;;;5013765;28;20041;-71
2023/06/03 00:27:38;;;;;;;7.95;2.35;;;13.50;99.90;;;;;;4997313;28;20630;-71
2023/06/03 00:30:06;;;;;;;4.63;1.95;;;13.60;99.90;;;;;;5014013;28;20094;-71
2023/06/03 00:32:33;;;;;;;6.20;1.85;;;13.30;99.90;;;;;;4998046;28;20073;-71
2023/06/03 00:34:59;;;;;;;3.88;1.48;;;13.40;99.90;;;;;;5013441;28;20037;-71
2023/06/03 00:37:25;;;;;;;5.18;1.50;;;13.40;99.90;;;;;;5013894;28;20562;-71
2023/06/03 00:39:51;;;;;;;3.47;1.63;;;13.30;99.90;;;;;;5014379;28;20379;-71
2023/06/03 00:42:16;;;;;;;2.60;1.52;;;13.40;99.90;;;;;;5013878;28;20040;-70
2023/06/03 00:44:42;;;;;;;3.63;1.75;;;;;;;;;;5013849;28;20046;-71
2023/06/03 00:47:09;;;;;;;4.53;1.35;;;;;;;;;;4997528;28;20125;-71
2023/06/03 00:49:34;;;;;;;3.53;1.45;;;13.30;99.90;;;;;;5013989;28;20072;-71
2023/06/03 00:52:02;;;;;;;3.90;1.42;;;13.30;99.90;;;;;;5014005;28;20126;-71
2023/06/03 00:54:28;;;;;;;3.20;2.17;;;13.30;99.90;;;;;;5013846;28;20041;-71
2023/06/03 00:56:56;;;;;;;2.60;1.38;;;13.10;99.90;;;;;;5013811;28;20520;-70
2023/06/03 00:59:22;;;;;;;4.38;1.45;;;13.20;99.90;;;;;;5014204;28;20440;-71
2023/06/03 01:01:47;;;;;;;3.65;1.35;;;13.30;99.90;;;;;;5014050;28;20060;-71
2023/06/03 01:04:18;;;;;;;3.47;1.48;;;13.20;99.90;;;;;;5013636;28;20048;-71
2023/06/03 01:07:13;;;;;;;2.75;1.38;;;13.20;99.90;;;;;;5016146;28;20029;-71
2023/06/03 01:09:57;;;;;;;3.53;1.27;;;13.30;99.90;;;;;;5029953;28;20041;-71
2023/06/03 01:12:29;;;;;;;4.60;1.48;;;13.00;99.90;;;;;;5029234;28;20504;-71
2023/06/03 01:14:58;;;;;;;3.15;1.33;;;13.10;99.90;;;;;;5020242;28;20045;-71
2023/06/03 01:17:27;;;;;;;2.92;1.30;;;13.20;99.90;;;;;;5002373;28;20045;-71
2023/06/03 01:19:56;;;;;;;2.90;1.30;;;13.10;99.90;;;;;;5017905;28;20041;-71
2023/06/03 01:22:26;;;;;;;2.47;1.80;;;13.30;99.90;;;;;;5017368;28;20037;-71
2023/06/03 01:25:03;;;;;;;7.63;1.80;;;13.10;99.90;;;;;;5017425;28;20129;-71
2023/06/03 01:27:28;;;;;;;6.68;2.00;;;13.20;99.90;;;;;;5017408;28;20092;-70
2023/06/03 01:29:54;;;;;;;1.58;1.08;;;;;;;;;;5017365;28;20037;-71
2023/06/03 01:32:20;;;;;;;1.75;1.13;;;;;;;;;;5017198;28;20045;-71
2023/06/03 01:34:47;;;;;;;2.92;1.23;;;13.20;99.90;;;;;;5000598;28;20037;-71
2023/06/03 01:37:13;;;;;;;4.38;1.30;;;;;;;;;;5000867;28;20092;-72
2023/06/03 01:39:40;;;;;;;3.42;1.33;;;13.10;99.90;;;;;;5035969;28;20052;-71
2023/06/03 01:42:10;;;;;;;2.28;1.00;;;13.10;99.90;;;;;;5017763;28;20167;-71
2023/06/03 01:44:36;;;;;;;2.15;1.20;;;13.10;99.90;;;;;;5035048;28;20072;-71
2023/06/03 01:47:04;;;;;;;2.85;1.40;;;13.20;99.90;;;;;;5017110;28;20037;-71
2023/06/03 01:49:31;;;;;;;4.07;1.70;;;;;;;;;;5016713;28;20042;-71
2023/06/03 01:52:01;;;;;;;2.50;1.70;;;12.90;99.90;;;;;;5016974;28;20037;-71
2023/06/03 01:54:28;;;;;;;1.55;1.20;;;13.20;99.90;;;;;;5016740;28;20042;-71
2023/06/03 01:56:55;;;;;;;2.03;1.25;;;13.20;99.90;;;;;;5016661;28;20041;-70
2023/06/03 01:59:24;;;;;;;2.58;1.30;;;;;;;;;;5016859;28;20049;-71
2023/06/03 02:01:54;;;;;;;2.50;0.98;;;12.90;99.90;;;;;;5016848;28;20136;-71
2023/06/03 02:04:20;;;;;;;5.03;1.27;;;12.70;99.90;;;;;;5016278;28;20128;-70
2023/06/03 02:06:53;;;;;;;3.17;1.08;;;12.90;99.90;;;;;;5016285;28;20175;-70
2023/06/03 02:09:27;;;;;;;3.60;1.25;;;12.90;99.90;;;;;;5016810;28;20045;-71
2023/06/03 02:11:56;;;;;;;4.32;1.45;;;12.80;99.90;;;;;;5000326;28;20448;-71
2023/06/03 02:14:23;;;;;;;9.13;1.50;;;12.60;99.90;;;;;;5016345;28;20393;-71
2023/06/03 02:16:49;;;;;;;3.08;1.13;;;12.70;99.90;;;;;;5015840;28;20038;-70
2023/06/03 02:19:20;;;;;;;3.15;1.13;;;12.70;99.90;;;;;;5016242;28;20053;-71
2023/06/03 02:21:46;;;;;;;6.75;1.70;;;12.50;99.90;;;;;;5016562;28;20409;-71
2023/06/03 02:24:16;;;;;;;3.85;1.38;;;12.70;99.90;;;;;;5015864;28;20048;-71
2023/06/03 02:26:52;;;;;;;4.03;1.20;;;12.60;99.90;;;;;;5016316;28;20069;-71
2023/06/03 02:29:22;;;;;;;2.00;1.15;;;12.60;99.90;;;;;;5016366;28;20064;-71
2023/06/03 02:31:49;;;;;;;2.65;1.30;;;12.60;99.90;;;;;;5019656;28;20049;-71
2023/06/03 02:34:15;;;;;;;4.75;1.58;;;12.60;99.90;;;;;;5016716;28;20045;-71
2023/06/03 02:36:42;;;;;;;4.13;1.58;;;;;;;;;;5033948;28;20416;-71
2023/06/03 02:39:09;;;;;;;3.97;1.98;;;12.60;99.90;;;;;;5016175;28;20041;-71
2023/06/03 02:41:35;;;;;;;3.67;1.73;;;12.50;99.90;;;;;;5016058;28;20520;-71
2023/06/03 02:44:01;;;;;;;4.43;1.85;;;12.40;99.90;;;;;;5015766;28;20520;-71
2023/06/03 02:46:27;;;;;;;2.88;1.27;;;;;;;;;;5033906;28;20116;-71
2023/06/03 02:48:53;;;;;;;1.88;1.10;;;12.30;99.90;;;;;;5016071;28;20072;-71
2023/06/03 02:51:19;;;;;;;2.83;1.33;;;12.20;99.90;;;;;;5015629;28;20563;-71
2023/06/03 02:53:45;;;;;;;2.20;0.93;;;;;;;;;;4999051;28;20118;-71
2023/06/03 02:56:11;;;;;;;1.73;1.38;;;;;;;;;;5016105;28;20053;-71
2023/06/03 02:58:37;;;;;;;2.88;1.42;;;;;;;;;;5015619;28;20072;-71
2023/06/03 03:01:03;;;;;;;3.53;1.65;;;;;;;;;;5015752;28;20045;-71
2023/06/03 03:03:29;;;;;;;2.55;1.50;;;;;;;;;;5015229;28;20505;-70
2023/06/03 03:05:56;;;;;;;4.10;1.10;;;12.20;99.90;;;;;;5015381;28;20042;-71
2023/06/03 03:08:22;;;;;;;3.15;1.20;;;12.20;99.90;;;;;;5015218;28;20788;-71
2023/06/03 03:10:48;;;;;;;3.83;1.30;;;12.20;99.90;;;;;;4999174;28;20122;-71
2023/06/03 03:13:14;;;;;;;2.00;1.00;;;12.10;99.90;;;;;;5015648;28;20179;-71
2023/06/03 03:15:40;;;;;;;3.13;1.98;;;12.20;99.90;;;;;;5015213;28;20497;-71
2023/06/03 03:18:06;;;;;;;3.75;1.70;;;12.00;99.90;;;;;;5015127;28;20489;-71
2023/06/03 03:20:32;;;;;;;5.38;1.77;;;;;;;;;;5033052;28;20049;-71
2023/06/03 03:22:59;;;;;;;2.95;1.85;;;12.10;99.90;;;;;;5015474;28;20046;-71
2023/06/03 03:25:25;;;;;;;2.80;1.60;;;12.10;99.90;;;;;;5015053;28;20375;-71
2023/06/03 03:27:50;;;;;;;6.00;1.60;;;12.00;99.90;;;;;;5015319;28;20045;-71
2023/06/03 03:30:16;;;;;;;3.40;1.70;;;;;;;;;;5033119;28;20041;-71
2023/06/03 03:32:42;;;;;;;2.30;1.50;;;;;;;;;;5014406;28;20120;-70
2023/06/03 03:35:13;;;;;;;2.42;1.58;;;12.00;99.90;;;;;;5014475;28;20125;-70
2023/06/03 03:37:39;;;;;;;4.57;1.83;;;12.00;99.90;;;;;;5015262;28;20471;-71
2023/06/03 03:40:16;;;;;;;1.73;1.15;;;11.90;99.90;;;;;;5015103;28;20037;-71
2023/06/03 03:42:42;;;;;;;4.07;1.40;;;;;;;;;;5032723;28;20045;-70
2023/06/03 03:45:16;;;;;;;1.42;1.10;;;12.00;99.90;;;;;;4998273;28;20084;-70
2023/06/03 03:47:42;;;;;;;5.55;1.55;;;11.70;99.90;;;;;;5015496;28;20039;-71
2023/06/03 03:50:33;;;;;;;7.20;1.83;;;11.90;99.90;;;;;;5015308;28;20119;-70
2023/06/03 03:53:03;;;;;;;1.52;1.20;;;11.80;99.90;;;;;;5014809;28;20128;-70
2023/06/03 03:55:28;;;;;;;4.38;1.38;;;12.00;99.90;;;;;;4998169;28;20382;-70
2023/06/03 03:57:54;;;;;;;4.55;1.65;;;11.90;99.90;;;;;;5014605;28;20131;-71
2023/06/03 04:00:21;;;;;;;3.70;1.90;;;12.00;99.90;;;;;;5014275;28;20037;-70
2023/06/03 04:02:49;;;;;;;1.92;1.33;;;11.80;99.90;;;;;;5014369;28;20071;-71
2023/06/03 04:05:16;;;;;;;2.50;1.40;;;11.90;99.90;;;;;;4997469;28;20068;-70
2023/06/03 04:07:46;;;;;;;3.05;1.50;;;11.90;99.90;;;;;;4998897;28;20466;-71
2023/06/03 04:10:12;;;;;;;3.47;1.60;;;12.00;99.90;;;;;;5011940;28;20457;-70
2023/06/03 04:12:38;;;;;;;7.80;1.55;;;;;;;;;;4996940;28;20076;-71
2023/06/03 04:15:04;;;;;;;2.33;1.40;;;11.80;99.90;;;;;;5011038;28;20041;-71
2023/06/03 04:17:31;;;;;;;2.63;1.10;;;;;;;;;;5007059;28;20040;-71
2023/06/03 04:19:59;;;;;;;4.20;1.40;;;12.00;99.90;;;;;;5004000;28;20106;-71
2023/06/03 04:22:25;;;;;;;2.78;1.10;;;12.10;99.90;;;;;;5002453;28;20046;-71
2023/06/03 04:24:56;;;;;;;3.28;1.35;;;12.20;99.90;;;;;;5003068;28;20113;-72
2023/06/03 04:27:22;;;;;;;2.78;1.20;;;12.20;99.90;;;;;;5004713;28;20087;-71
2023/06/03 04:29:48;;;;;;;6.32;1.40;;;12.20;99.90;;;;;;4997557;28;20516;-71
2023/06/03 04:32:13;;;;;;;3.63;1.85;;;12.10;99.90;;;;;;4994870;28;20489;-71
2023/06/03 04:34:54;;;;;;;3.75;1.50;;;12.10;99.90;;;;;;4994075;28;20042;-71
2023/06/03 04:37:21;;;;;;;5.40;1.40;;;12.30;99.90;;;;;;4994467;28;20545;-70
2023/06/03 04:39:46;;;;;;;4.32;1.20;;;12.40;99.90;;;;;;4994340;28;20042;-71
2023/06/03 04:42:12;;;;;;;1.75;1.20;;;12.50;99.90;;;;;;4994317;28;20038;-71
2023/06/03 04:44:42;;;;;;;2.00;1.38;;;12.50;99.90;;;;;;4994253;28;20046;-71
2023/06/03 04:47:12;;;;;;;2.72;1.50;;;12.40;99.90;;;;;;4994451;28;20074;-71
2023/06/03 04:49:38;;;;;;;1.90;1.33;;;12.60;99.90;;;;;;4994376;28;20053;-71
2023/06/03 04:52:05;;;;;;;1.52;1.10;;;12.90;99.90;;;;;;4994559;28;20413;-71
2023/06/03 04:54:31;;;;;;;3.50;1.48;;;12.60;99.90;;;;;;4993795;28;20498;-70
2023/06/03 04:56:57;;;;;;;3.55;1.20;;;;;;;;;;4993817;28;20042;-71
2023/06/03 04:59:23;;;;;;;2.55;1.60;;;;;;;;;;4994305;28;20121;-71
2023/06/03 05:01:50;;;;;;;1.92;1.25;;;;;;;;;;4994025;28;20165;-71
2023/06/03 05:04:19;;;;;;;2.67;1.33;;;12.70;99.90;;;;;;4993616;28;20042;-71
2023/06/03 05:06:45;;;;;;;1.55;1.05;;;;;;;;;;4993713;28;20053;-69
2023/06/03 05:09:11;;;;;;;1.95;1.25;;;;;;;;;;4994317;28;20038;-71
2023/06/03 05:11:37;;;;;;;2.85;1.38;;;;;;;;;;4994095;28;20041;-71
2023/06/03 05:14:03;;;;;;;3.58;1.50;;;;;;;;;;5001193;28;20052;-71
2023/06/03 05:16:29;;;;;;;2.25;1.10;;;;;;;;;;5020495;28;20096;-71
2023/06/03 05:18:55;;;;;;;2.00;1.30;;;;;;;;;;5012507;28;20057;-71
2023/06/03 05:21:21;;;;;;;3.10;1.48;;;12.90;99.90;;;;;;5010695;28;20038;-70
2023/06/03 05:23:46;;;;;;;4.90;1.40;;;12.90;99.90;;;;;;5010180;28;20038;-70
2023/06/03 05:26:12;;;;;;;2.80;1.48;;;12.90;99.90;;;;;;5010941;28;20124;-71
2023/06/03 05:28:38;;;;;;;2.33;1.50;;;;;;;;;;5013141;28;20045;-70
2023/06/03 05:31:04;;;;;;;1.90;1.40;;;;;;;;;;5010830;28;20053;-71
2023/06/03 05:33:31;;;;;;;2.92;1.40;;;13.10;99.90;;;;;;5010096;28;20124;-70
2023/06/03 05:35:57;;;;;;;3.05;1.20;;;;;;;;;;5009104;28;20120;-70
2023/06/03 05:38:23;;;;;;;4.13;1.42;;;13.30;99.90;;;;;;5010062;28;20080;-71
2023/06/03 05:40:50;;;;;;;1.92;1.23;;;13.50;99.90;;;;;;5010162;28;20042;-71
2023/06/03 05:43:16;;;;;;;3.00;1.65;;;13.70;99.90;;;;;;5011616;28;20049;-71
2023/06/03 05:45:42;;;;;;;4.22;1.67;;;13.70;99.90;;;;;;5016193;28;20034;-72
2023/06/03 05:48:09;;;;;;;2.17;1.40;;;13.60;99.90;;;;;;5003940;28;20532;-71
2023/06/03 05:50:37;;;;;;;2.00;1.23;;;13.80;99.90;;;;;;5003405;28;20185;-71
2023/06/03 05:53:03;;;;;;;2.55;1.40;;;;;;;;;;5001839;28;20125;-72
2023/06/03 05:55:29;;;;;;;2.95;1.67;;;13.90;99.90;;;;;;4995234;28;20045;-71
2023/06/03 05:57:55;;;;;;;1.95;1.50;;;;;;;;;;5010026;28;20038;-70
2023/06/03 06:00:21;;;;;;;2.33;1.58;;;;;;;;;;5011429;28;20041;-71
2023/06/03 06:02:48;;;;;;;5.22;1.50;;;;;;;;;;5012670;28;20437;-70
2023/06/03 06:05:14;;;;;;;4.40;1.83;;;14.20;99.90;;;;;;5011923;28;20116;-71
2023/06/03 06:07:40;;;;;;;5.75;1.38;;;;;;;;;;4996148;28;20054;-71
2023/06/03 06:10:06;;;;;;;2.50;1.27;;;;;;;;;;5015350;28;20056;-71
2023/06/03 06:12:32;;;;;;;6.38;1.38;;;;;;;;;;5024971;28;20499;-70
2023/06/03 06:14:58;;;;;;;4.00;1.27;;;;;;;;;;5018510;28;20046;-70
2023/06/03 06:17:24;;;;;;;1.95;1.30;;;14.60;99.90;;;;;;5028979;28;20048;-70
2023/06/03 06:19:49;;;;;;;2.45;1.20;;;14.80;99.90;;;;;;4996976;28;20037;-72
2023/06/03 06:22:15;;;;;;;3.80;2.25;;;14.70;99.90;;;;;;5007848;28;20128;-71
2023/06/03 06:24:42;;;;;;;8.25;1.70;;;14.90;99.90;;;;;;5006255;28;20531;-71
2023/06/03 06:27:08;;;;;;;2.95;1.40;;;15.00;99.90;;;;;;4988601;28;20025;-71
2023/06/03 06:29:33;;;;;;;3.35;1.40;;;15.10;99.90;;;;;;5007920;28;20071;-72
2023/06/03 06:32:00;;;;;;;3.63;1.30;;;15.30;99.90;;;;;;5000406;28;20081;-70
2023/06/03 06:34:29;;;;;;;1.88;1.23;;;15.40;99.90;;;;;;4999114;28;20421;-71
2023/06/03 06:36:56;;;;;;;2.95;1.27;;;;;;;;;;4983091;28;20045;-71
2023/06/03 06:39:21;;;;;;;3.72;1.30;;;;;;;;;;4997797;28;20440;-72
2023/06/03 06:41:47;;;;;;;2.78;1.40;;;15.70;99.90;;;;;;4999037;28;20044;-72
2023/06/03 06:44:13;;;;;;;3.75;1.10;;;;;;;;;;4979638;28;20042;-72
2023/06/03 06:46:39;;;;;;;3.13;1.10;;;16.10;99.90;;;;;;4979092;28;20042;-73
2023/06/03 06:49:06;;;;;;;1.55;1.20;;;;;;;;;;4995278;28;20132;-73
2023/06/03 06:51:32;;;;;;;3.58;1.30;;;16.20;99.90;;;;;;4995552;28;20050;-72
2023/06/03 06:53:59;;;;;;;3.03;1.27;;;16.50;99.90;;;;;;4994862;28;20046;-73
2023/06/03 06:56:25;;;;;;;3.45;1.30;;;16.70;99.90;;;;;;4995819;28;20042;-73
2023/06/03 06:58:51;;;;;;;2.92;1.13;;;16.90;99.90;;;;;;4995417;28;20091;-73
2023/06/03 07:01:16;;;;;;;2.40;1.02;;;17.00;99.90;;;;;;4979938;28;20046;-72
2023/06/03 07:03:42;;;;;;;4.18;1.83;;;;;;;;;;4979482;28;20038;-73
2023/06/03 07:06:08;;;;;;;4.20;1.55;;;;;;;;;;5012792;28;20041;-73
2023/06/03 07:08:34;;;;;;;2.22;1.23;;;17.50;99.90;;;;;;4995980;28;20065;-73
2023/06/03 07:11:04;;;;;;;3.38;1.40;;;17.40;99.90;;;;;;4979922;28;20052;-73
2023/06/03 07:13:30;;;;;;;3.78;1.00;;;17.60;99.90;;;;;;4995461;28;20046;-72
2023/06/03 07:15:55;;;;;;;2.15;1.25;;;17.70;99.90;;;;;;4996025;28;20051;-73
2023/06/03 07:18:21;;;;;;;1.67;1.17;;;;;;;;;;4995650;28;20042;-73
2023/06/03 07:20:48;;;;;;;3.35;0.93;;;17.20;99.90;;;;;;5013316;28;20420;-73
2023/06/03 07:23:22;;;;;;;2.42;0.70;;;17.90;99.90;;;;;;4979554;28;20087;-72
2023/06/03 07:25:49;;;;;;;6.38;2.20;;;16.60;99.90;;;;;;4979160;28;20096;-73
2023/06/03 07:28:30;;;;;;;9.32;1.92;;;16.70;99.90;;;;;;4995819;28;20252;-72
2023/06/03 07:30:59;;;;;;;3.45;0.93;;;16.30;99.90;;;;;;4979483;28;20080;-73
2023/06/03 07:33:29;;;;;;;3.67;1.02;;;16.40;99.90;;;;;;4995422;28;20302;-73
2023/06/03 07:36:00;;;;;;;2.40;0.70;;;16.50;99.90;;;;;;4979227;28;20042;-73
2023/06/03 07:38:37;;;;;;;2.40;1.25;;;16.20;99.90;;;;;;4994297;28;20033;-73
2023/06/03 07:41:08;;;;;;;2.03;0.98;;;16.30;99.90;;;;;;4995522;28;20042;-73
2023/06/03 07:43:35;;;;;;;4.25;1.13;;;16.20;99.90;;;;;;4995051;28;20096;-72
2023/06/03 07:46:05;;;;;;;2.38;1.40;;;16.10;99.90;;;;;;4995580;28;20037;-73
2023/06/03 07:48:32;;;;;;;3.28;0.90;;;16.20;99.90;;;;;;5013080;28;20479;-72
2023/06/03 07:50:58;;;;;;;1.17;0.95;;;16.10;99.90;;;;;;4995023;28;20124;-73
2023/06/03 07:53:24;;;;;;;3.90;1.10;;;16.60;99.90;;;;;;4995181;28;20125;-72
2023/06/03 07:55:50;;;;;;;2.55;0.98;;;16.80;99.90;;;;;;4994745;28;20077;-72
2023/06/03 07:58:17;;;;;;;3.03;0.95;;;17.10;99.90;;;;;;4995111;28;20073;-73
2023/06/03 08:00:52;;;;;;;2.90;0.90;;;17.30;99.90;;;;;;4995026;28;20053;-73
2023/06/03 08:03:18;;;;;;;1.98;0.88;;;17.50;99.90;;;;;;4994966;28;20045;-73
2023/06/03 08:05:47;;;;;;;2.17;1.00;;;17.30;99.90;;;;;;4994398;28;20091;-73
2023/06/03 08:08:14;;;;;;;2.15;1.38;;;17.70;99.90;;;;;;4978815;28;20042;-73
2023/06/03 08:10:40;;;;;;;2.05;1.08;;;;;;;;;;4994871;28;20045;-73
2023/06/03 08:13:05;;;;;;;6.07;0.88;;;18.10;99.90;;;;;;4994756;28;20034;-72
2023/06/03 08:15:35;;;;;;;2.17;1.15;;;18.30;99.90;;;;;;4994669;28;20091;-72
2023/06/03 08:18:08;;;;;;;4.22;1.30;;;18.10;99.90;;;;;;4994407;28;20038;-73
2023/06/03 08:20:38;;;;;;;2.63;1.25;;;18.40;99.30;;;;;;4978560;28;20065;-73
2023/06/03 08:23:04;;;;;;;3.97;0.80;;;18.60;99.90;;;;;;4994546;28;20194;-73
2023/06/03 08:25:31;;;;;;;2.15;1.20;;;18.50;99.70;;;;;;4996529;28;20162;-73
2023/06/03 08:27:56;;;;;;;3.45;1.70;;;18.80;99.90;;;;;;4995226;28;20080;-73
2023/06/03 08:30:22;;;;;;;2.42;0.98;;;18.70;99.90;;;;;;4994679;28;20121;-73
2023/06/03 08:32:49;;;;;;;2.17;0.93;;;18.70;99.10;;;;;;4994803;28;20540;-72
2023/06/03 08:35:21;;;;;;;3.58;1.15;;;18.80;98.70;;;;;;4994303;28;20064;-73
2023/06/03 08:37:47;;;;;;;1.35;0.75;;;19.00;99.70;;;;;;4993143;28;20041;-73
2023/06/03 08:40:15;;;;;;;2.85;0.82;;;18.80;98.30;;;;;;4994538;28;20092;-73
2023/06/03 08:42:47;;;;;;;2.13;0.93;;;19.10;98.40;;;;;;4994262;28;20129;-73
2023/06/03 08:45:18;;;;;;;2.38;0.90;;;19.10;98.60;;;;;;4994035;28;20042;-73
2023/06/03 08:48:15;;;;;;;1.77;1.05;;;19.40;99.20;;;;;;4994231;28;20037;-73
2023/06/03 08:50:47;;;;;;;6.05;1.17;;;19.50;97.90;;;;;;4994495;28;20180;-73
2023/06/03 08:53:14;;;;;;;2.50;0.75;;;19.50;97.80;;;;;;4994561;28;20038;-73
2023/06/03 08:55:40;;;;;;;2.00;0.80;;;19.30;97.30;;;;;;5011570;28;20490;-73
2023/06/03 08:58:43;;;;;;;2.55;0.82;;;19.50;96.70;;;;;;4994132;28;20046;-73
2023/06/03 09:01:10;;;;;;;2.03;0.70;;;20.00;96.70;;;;;;4963995;28;20046;-73
2023/06/03 09:03:37;;;;;;;2.40;0.82;;;19.70;98.20;;;;;;4993808;28;20088;-72
2023/06/03 09:06:03;;;;;;;6.90;1.38;;;19.80;98.30;;;;;;4994083;28;20493;-73
2023/06/03 09:08:31;;;;;;;2.65;0.80;;;19.80;97.60;;;;;;4993926;28;20050;-73
2023/06/03 09:10:58;;;;;;;2.55;1.00;;;19.90;96.90;;;;;;4994214;28;20081;-73
2023/06/03 09:13:26;;;;;;;1.45;0.80;;;19.90;96.30;;;;;;4994395;28;20133;-73
2023/06/03 09:15:52;;;;;;;1.70;1.13;;;20.10;96.90;;;;;;4994124;28;20528;-73
2023/06/03 09:18:18;;;;;;;1.75;0.70;;;20.40;96.00;;;;;;4994214;28;20037;-73
2023/06/03 09:20:44;;;;;;;1.88;0.68;;;20.10;96.00;;;;;;4994326;28;20629;-73
2023/06/03 09:23:12;;;;;;;2.15;1.25;;;20.10;95.20;;;;;;4978303;28;20091;-73
2023/06/03 09:25:38;;;;;;;2.75;0.70;;;21.80;95.40;;;;;;4993757;28;20045;-73
2023/06/03 09:28:04;;;;;;;2.80;1.02;;;20.30;95.00;;;;;;4994163;28;20583;-73
2023/06/03 09:30:33;;;;;;;4.53;1.30;;;20.20;94.90;;;;;;4996000;28;20083;-73
2023/06/03 09:32:59;;;;;;;3.05;0.63;;;20.50;94.30;;;;;;4997963;28;20034;-73
2023/06/03 09:35:25;;;;;;;3.00;0.93;;;20.80;94.60;;;;;;4994353;28;20040;-73
2023/06/03 09:38:04;;;;;;;6.18;1.08;;;21.20;95.30;;;;;;5032179;28;20061;-73
2023/06/03 09:40:31;;;;;;;3.20;0.90;;;20.60;94.60;;;;;;5026926;28;20048;-73
2023/06/03 09:42:57;;;;;;;2.10;0.98;;;20.40;94.50;;;;;;5016551;28;20037;-73
2023/06/03 09:45:34;;;;;;;4.10;0.80;;;21.50;95.30;;;;;;4998094;28;20045;-73
2023/06/03 09:48:01;;;;;;;2.75;1.05;;;21.20;95.10;;;;;;4997895;28;20294;-73
2023/06/03 09:50:28;;;;;;;3.70;0.88;;;21.20;95.10;;;;;;4998521;28;20052;-73
2023/06/03 09:52:54;;;;;;;2.63;0.80;;;20.80;95.20;;;;;;4997935;28;20075;-73
2023/06/03 09:55:22;;;;;;;6.35;0.90;;;20.90;94.80;;;;;;4981906;28;20048;-73
2023/06/03 09:58:04;;;;;;;1.40;0.70;;;21.40;94.60;;;;;;5000294;28;20046;-73
2023/06/03 10:00:32;;;;;;;4.90;0.82;;;20.60;94.80;;;;;;4997634;28;20053;-73
2023/06/03 10:03:08;;;;;;;0.80;0.68;;;20.90;95.20;;;;;;4997146;28;20560;-73
2023/06/03 10:05:34;;;;;;;2.10;1.00;;;21.00;94.90;;;;;;4981360;28;20048;-71
2023/06/03 10:08:01;;;;;;;1.10;0.88;;;22.20;94.50;;;;;;4997414;28;20076;-72
2023/06/03 10:10:27;;;;;;;4.00;1.00;;;21.10;95.10;;;;;;4997234;28;20033;-73
2023/06/03 10:12:53;;;;;;;3.47;1.08;;;22.10;94.30;;;;;;4996905;28;20469;-72
2023/06/03 10:15:39;;;;;;;2.90;0.90;;;21.20;95.00;;;;;;5014089;28;20084;-72
2023/06/03 10:18:06;;;;;;;1.45;0.77;;;21.40;94.80;;;;;;4997200;28;20049;-72
2023/06/03 10:20:35;;;;;;;1.83;0.90;;;21.40;95.00;;;;;;4996960;28;20046;-72
2023/06/03 10:23:03;;;;;;;3.90;1.00;;;22.50;94.90;;;;;;5014534;28;20096;-73
2023/06/03 10:25:45;;;;;;;2.63;0.80;;;22.80;95.20;;;;;;5014120;28;20045;-73
2023/06/03 10:28:12;;;;;;;3.60;1.10;;;21.40;94.40;;;;;;4980729;28;20514;-73
2023/06/03 10:30:39;;;;;;;4.15;0.93;;;21.60;94.20;;;;;;4996795;28;20046;-73
2023/06/03 10:33:08;;;;;;;1.77;0.90;;;21.60;94.50;;;;;;4996938;28;20132;-73
2023/06/03 10:35:36;;;;;;;2.78;1.10;;;22.30;94.20;;;;;;4996415;28;20444;-72
2023/06/03 10:38:03;;;;;;;8.93;1.50;;;21.60;94.50;;;;;;4996762;28;20122;-73
2023/06/03 10:40:29;;;;;;;1.38;0.88;;;22.60;93.40;;;;;;4996519;28;20058;-73
2023/06/03 10:42:56;;;;;;;2.08;1.05;;;21.10;93.80;;;;;;4996490;28;20042;-72
2023/06/03 10:45:23;;;;;;;2.90;0.85;;;21.30;93.20;;;;;;4996095;28;20042;-72
2023/06/03 10:47:52;;;;;;;1.67;0.73;;;21.30;94.10;;;;;;4980371;28;20040;-72
2023/06/03 10:50:43;;;;;;;1.58;1.13;;;21.40;93.80;;;;;;4996649;28;20086;-73
2023/06/03 10:53:27;;;;;;;1.95;1.08;;;21.50;93.70;;;;;;4996718;28;20476;-73
2023/06/03 10:56:14;;;;;;;2.63;0.90;;;21.70;93.90;;;;;;5014078;28;20076;-73
2023/06/03 10:58:42;;;;;;;2.42;0.70;;;21.70;94.80;;;;;;4996385;28;20486;-73
2023/06/03 11:01:08;;;;;;;3.42;0.80;;;21.80;93.50;;;;;;4996296;28;20414;-73
2023/06/03 11:03:54;;;;;;;2.60;0.80;;;22.50;93.40;;;;;;4979545;28;20040;-72
2023/06/03 11:06:23;;;;;;;1.00;0.80;;;21.70;93.30;;;;;;4979576;28;20069;-73
2023/06/03 11:09:06;;;;;;;2.20;0.85;;;21.90;92.80;;;;;;4995904;28;20497;-72
2023/06/03 11:11:44;;;;;;;1.30;0.80;;;21.30;92.10;;;;;;4996021;28;20050;-73
2023/06/03 11:14:29;;;;;;;1.85;0.85;;;22.90;94.40;;;;;;4995903;28;20473;-72
2023/06/03 11:16:58;;;;;;;3.25;0.70;;;22.10;94.40;;;;;;4995051;28;20468;-72
2023/06/03 11:19:34;;;;;;;2.13;0.90;;;22.10;93.60;;;;;;4979709;28;20041;-73
2023/06/03 11:22:02;;;;;;;3.15;0.93;;;22.20;93.30;;;;;;4995710;28;20117;-73
2023/06/03 11:24:43;;;;;;;1.85;1.02;;;22.20;93.40;;;;;;4995614;28;20060;-73
2023/06/03 11:27:14;;;;;;;2.40;0.90;;;21.90;92.70;;;;;;4995496;28;20049;-73
2023/06/03 11:29:46;;;;;;;3.38;0.77;;;23.10;93.00;;;;;;4995689;28;20092;-73
2023/06/03 11:32:38;;;;;;;1.33;0.63;;;22.50;93.70;;;;;;4979671;28;20049;-72
2023/06/03 11:35:03;;;;;;;0.82;0.55;;;21.80;92.70;;;;;;4995324;28;20052;-73
2023/06/03 11:37:41;;;;;;;1.63;0.70;;;23.10;94.10;;;;;;4979423;28;20037;-72
2023/06/03 11:40:16;;;;;;;2.08;1.00;;;22.60;93.70;;;;;;4995621;28;20048;-73
2023/06/03 11:42:51;;;;;;;1.40;1.02;;;22.50;93.40;;;;;;4995656;28;20516;-72
2023/06/03 11:45:26;;;;;;;2.08;0.63;;;22.30;92.10;;;;;;4995106;28;20046;-73
2023/06/03 11:47:52;;;;;;;4.50;0.90;;;23.80;92.40;;;;;;4995087;28;20080;-73
2023/06/03 11:50:19;;;;;;;2.08;0.90;;;22.20;92.80;;;;;;4995475;28;20065;-73
2023/06/03 11:52:45;;;;;;;1.23;0.50;;;23.20;92.70;;;;;;4994671;28;20560;-72
2023/06/03 11:55:11;;;;;;;2.95;1.10;;;22.40;92.80;;;;;;4994971;28;20089;-73
2023/06/03 11:57:39;;;;;;;1.88;0.82;;;22.70;92.70;;;;;;4994909;28;20038;-73
2023/06/03 12:00:09;;;;;;;3.97;0.93;;;23.30;92.70;;;;;;4995488;28;20054;-72
2023/06/03 12:02:45;;;;;;;4.65;0.80;;;22.50;92.40;;;;;;4994978;28;20045;-72
2023/06/03 12:05:12;;;;;;;2.45;0.90;;;22.80;92.60;;;;;;4994426;28;20038;-73
2023/06/03 12:07:37;;;;;;;1.60;0.85;;;22.70;93.10;;;;;;4978813;28;20038;-73
2023/06/03 12:10:03;;;;;;;2.83;0.73;;;23.50;93.10;;;;;;5012727;28;20087;-73
2023/06/03 12:12:29;;;;;;;2.92;1.00;;;23.00;92.80;;;;;;4995195;28;20041;-73
2023/06/03 12:14:57;;;;;;;2.85;0.80;;;23.10;92.90;;;;;;5012062;28;20045;-73
2023/06/03 12:17:23;;;;;;;1.83;0.90;;;23.70;93.00;;;;;;5012287;28;20116;-72
2023/06/03 12:19:51;;;;;;;1.73;0.77;;;22.70;92.10;;;;;;4994867;28;20042;-72
2023/06/03 12:22:25;;;;;;;4.00;1.00;;;22.90;92.00;;;;;;5012683;28;20046;-73
2023/06/03 12:24:51;;;;;;;5.30;1.27;;;22.60;92.10;;;;;;4978178;28;20038;-73
2023/06/03 12:27:22;;;;;;;0.65;0.52;;;22.60;92.10;;;;;;4994402;28;20045;-73
2023/06/03 12:29:58;;;;;;;3.58;0.98;;;22.90;92.50;;;;;;4995069;28;20038;-73
2023/06/03 12:32:32;;;;;;;5.30;1.17;;;22.70;91.90;;;;;;4994615;28;20053;-73
2023/06/03 12:35:09;;;;;;;5.60;1.10;;;22.90;93.50;;;;;;4994056;28;20038;-73
2023/06/03 12:37:37;;;;;;;4.03;1.05;;;22.70;92.70;;;;;;4994473;28;20056;-73
2023/06/03 12:40:03;;;;;;;2.53;1.17;;;23.70;93.40;;;;;;4978190;28;20123;-73
2023/06/03 12:42:38;;;;;;;2.55;0.80;;;23.40;92.70;;;;;;4978027;28;20037;-73
2023/06/03 12:45:05;;;;;;;4.25;0.95;;;23.10;91.30;;;;;;4994136;28;20072;-72
2023/06/03 12:47:42;;;;;;;1.10;0.60;;;22.90;92.60;;;;;;4994159;28;20041;-73
2023/06/03 12:50:09;;;;;;;2.35;0.90;;;23.10;91.80;;;;;;4994003;28;20541;-73
2023/06/03 12:52:37;;;;;;;1.98;0.85;;;23.00;91.80;;;;;;4994283;28;20049;-73
2023/06/03 12:55:10;;;;;;;2.20;0.70;;;23.10;92.40;;;;;;4993805;28;20042;-73
2023/06/03 12:57:40;;;;;;;4.30;1.13;;;23.00;91.20;;;;;;4977974;28;20179;-73
2023/06/03 13:00:18;;;;;;;2.53;0.88;;;22.90;91.90;;;;;;5012243;28;20042;-73
2023/06/03 13:02:46;;;;;;;2.15;0.93;;;22.60;90.40;;;;;;4994279;28;20042;-73
2023/06/03 13:05:12;;;;;;;2.97;1.10;;;22.80;91.90;;;;;;4995407;28;20502;-73
2023/06/03 13:07:41;;;;;;;2.13;0.93;;;22.50;91.20;;;;;;4998338;28;20531;-72
2023/06/03 13:10:13;;;;;;;2.58;0.80;;;23.10;91.40;;;;;;4998125;28;20033;-72